Wisconsin Rapids, WI (54494)

11:20 AM CDT on September 01, 2015 (GMT -0500)
South East Grand Rapids, WI | | Change Station
CLOSE
Current Station
Personal Weather Station
Location: Wisconsin Rapids, WI
Elevation: 1073 ft
Nearby Weather Stations

Elev 1073 ft 44.34 °N, 89.77 °W | Updated 29 seconds ago

Partly Cloudy
Partly Cloudy
82.9 °F
Feels Like 90 °F
N
0.9
Wind Variable Wind from NE
Gusts 1.0 mph

Today
High -- | Low -- °F
--% Chance of Precip.
Yesterday
High -- | Low -- °F
Precip. -- in
6:21 AM 7:35 PM
Waning Gibbous, 88% visible
Pressure 29.99 in
Visibility 9.0 miles
Clouds Clear
Heat Index 90 °F
Dew Point 75 °F
Humidity 77%
Rainfall 0.05 in
Snow Depth Not available.
UV 6 out of 12
Pollen 10.40 out of 12
Air Quality Not available.
Flu Activity Not available.
METAR KISW 011554Z AUTO 00000KT 9SM CLR 28/21 A3000 RMK AO2 SLP153 T02780211
Pressure 29.99 in
Visibility 9.0 miles
Clouds Clear
Heat Index 90 °F
Dew Point 75 °F
Humidity 77%
Rainfall 0.05 in
Snow Depth Not available.
UV 6 out of 12
Pollen 10.40 out of 12
Air Quality Not available.
Flu Activity Not available.
METAR KISW 011554Z AUTO 00000KT 9SM CLR 28/21 A3000 RMK AO2 SLP153 T02780211

10-Day Weather Forecast

×

Almanac

Astronomy

Sep. 01, 2015 Rise Set
Actual Time
Civil Twilight
Nautical Twilight
Astronomical Twilight
Moon
Length of Visible Light
Length of Day
Tomorrow will be .
, % of the Moon is Illuminated

Today's Extremes

State Highs State Lows

Community

WunderPhotos

Upload Photos

1,851,544 photos uploaded!

WunderBlogs® & News

Nearby

Air Quality

  Air Quality AQ Index Pollutant
Not available.

Snow Depth

Station Depth Elevation

Earthquake Activity

City Distance Mag. Time & Date
Minimum magnitude displayed is 2.5.

Coastal Water Temperatures

Place Temperature

Stations

Nearby Weather Stations

Station Location Temp. Windchill Dew Point Humidity Wind Precip. Elev Updated Type